Résultats

TRAIL DE JOUQUES : TRAIL DE JOUQUES - ENFANTS - 2KM. Édition 2014.

2 Km
12/10/2014 à 00:00:00 - ()
30 arrivant(e)s.





Place▲ Temps Dossard Nom Prenom Categ #Categ Sexe #Sexe Club Vit Moy Diplôme Partager
1 00:24:20 1 CANZANO MATHIEU BMM 1 M 1 9.9
2 00:24:22 23 OLIVERO ESTEBAN BMM 2 M 2 9.9
3 00:25:01 25 MARY LEO BMM 3 M 3 AIX ATHLE PROVENCE 9.9
4 00:25:19 13 MALFANTI ACHILLE BMM 4 M 4 9.9
5 00:26:30 18 BORNEL ROMAIN BMM 5 M 5 9.9
6 00:26:43 30 DALIGAUD LUKAS EPM 1 M 6 TRIATHL'AIX 9.9
7 00:26:54 17 BORNEL ADRIEN EPM 2 M 7 9.9
8 00:27:14 27 PRABEL VIOLETTE BMF 1 F 1 AIX ATHLE PROVENCE 9.9
9 00:27:56 22 GAMERERE MATTHIEU EPM 3 M 8 9.9
10 00:27:58 31 DALIGAUD MATYAS EPM 4 M 9 TRIATHL'AIX 9.9
11 00:28:09 5 DE-COLIERE MAXIME EPM 5 M 10 TRAIL ECO RAID HAUTE PROVENCE 9.9
12 00:29:00 9 GUTEKUNST HUGO BMM 6 M 11 9.9
13 00:29:08 2 CLOT NATHAN EPM 6 M 12 9.9
14 00:29:24 24 MULLIER DIEGO EPM 7 M 13 9.9
15 00:29:27 32 PINEAU CAMILLE BMF 2 F 2 9.9
16 00:29:55 28 PRABEL CHARLOTTE BMF 3 F 3 AIX ATHLE PROVENCE 9.9
17 00:30:28 16 RIBIER MARINA BMF 4 F 4 9.9
18 00:30:32 29 DE-ROHDEN ANTOINE BMM 7 M 14 9.9
19 00:32:19 14 MALFANTI LEON EPM 8 M 15 9.9
20 00:32:55 26 GRIMAUD LAURE BMF 5 F 5 9.9
21 00:33:46 7 DEWAVRIN MAINA BMF 6 F 6 9.9
22 00:33:48 6 DELASSALLE EMMA EPF 1 F 7 9.9
23 00:34:47 4 DE-COLIERE CARLA EPF 2 F 8 TRAIL ECO RAID HAUTE PROVENCE 9.9
24 00:34:48 21 GAMERERE LAURIE EPF 3 F 9 9.9
25 00:34:49 33 DUMANOIS AMBRE BMF 7 F 10 9.9
26 00:37:00 19 GUALDE ALEXIS BMM 8 M 16 9.9
27 00:37:31 3 CLOT VINCENT EPM 9 M 17 9.9
28 00:38:23 15 MARELLE RUBEN EPM 10 M 18 9.9
29 00:40:47 8 GRONDON ELLIOT EPM 11 M 19 9.9
30 00:42:00 11 LANDAIS ORIANE BMF 8 F 11 9.9